Time;durP1;ratioP1;P1;durP2;ratioP2;P2;SDS_P1;SDS_P2;PMS_P1;PMS_P2;Temp;Humidity;BMP_temperature;BMP_pressure;BME280_temperature;BME280_humidity;BME280_pressure;Samples;Min_cycle;Max_cycle;Signal;HPM_P1;HPM_P2
2022/02/14 00:01:24;;;;;;;2.00;1.77;;;10.00;99.90;;;;;;5065555;28;20197;-87
2022/02/14 00:03:50;;;;;;;12.23;2.17;;;10.00;99.90;;;;;;5041092;28;20961;-90
2022/02/14 00:06:15;;;;;;;1.70;1.47;;;10.00;99.90;;;;;;5048612;28;21336;-89
2022/02/14 00:08:44;;;;;;;4.07;2.13;;;10.00;99.90;;;;;;5040038;28;20225;-89
2022/02/14 00:11:11;;;;;;;2.33;2.13;;;10.00;99.90;;;;;;5040401;28;20259;-89
2022/02/14 00:13:37;;;;;;;3.00;2.20;;;10.00;99.90;;;;;;5056322;28;20185;-89
2022/02/14 00:16:03;;;;;;;5.47;2.60;;;10.00;99.90;;;;;;5056463;28;20200;-88
2022/02/14 00:18:29;;;;;;;4.07;1.70;;;10.00;99.90;;;;;;5038672;28;20221;-89
2022/02/14 00:20:54;;;;;;;3.13;1.53;;;10.00;99.90;;;;;;5038333;28;20227;-88
2022/02/14 00:23:20;;;;;;;6.37;2.60;;;10.00;99.90;;;;;;5038635;28;20620;-88
2022/02/14 00:25:46;;;;;;;1.43;1.33;;;9.90;99.90;;;;;;5022152;28;20244;-90
2022/02/14 00:28:13;;;;;;;3.27;2.90;;;9.90;99.90;;;;;;5032079;28;20239;-89
2022/02/14 00:30:38;;;;;;;3.53;1.83;;;9.90;99.90;;;;;;5039919;28;20271;-89
2022/02/14 00:33:05;;;;;;;1.83;1.73;;;9.90;99.90;;;;;;5055094;28;20710;-89
2022/02/14 00:35:30;;;;;;;1.37;1.17;;;9.90;99.90;;;;;;5065825;28;20639;-88
2022/02/14 00:37:56;;;;;;;7.20;2.00;;;9.90;99.90;;;;;;5056586;28;20221;-87
2022/02/14 00:40:22;;;;;;;1.77;1.67;;;9.90;99.90;;;;;;5036247;28;20197;-87
2022/02/14 00:42:48;;;;;;;2.37;2.17;;;9.90;99.90;;;;;;5052954;28;20701;-88
2022/02/14 00:45:15;;;;;;;2.77;2.23;;;9.90;99.90;;;;;;5034433;28;20224;-89
2022/02/14 00:47:41;;;;;;;9.63;2.10;;;9.90;99.90;;;;;;5051903;28;20294;-90
2022/02/14 00:50:08;;;;;;;1.30;1.20;;;9.80;99.90;;;;;;5019617;28;20258;-90
2022/02/14 00:52:34;;;;;;;2.07;1.97;;;9.80;99.90;;;;;;5051702;28;20196;-89
2022/02/14 00:55:00;;;;;;;5.17;3.07;;;9.90;99.90;;;;;;5038851;28;20193;-89
2022/02/14 00:57:27;;;;;;;2.63;1.80;;;9.80;99.90;;;;;;5022781;28;20596;-89
2022/02/14 00:59:53;;;;;;;6.43;2.50;;;9.90;99.90;;;;;;5038237;28;20217;-91
2022/02/14 01:02:19;;;;;;;2.30;2.10;;;9.90;99.90;;;;;;5053877;28;20640;-89
2022/02/14 01:04:45;;;;;;;1.40;1.37;;;9.90;99.90;;;;;;5037522;28;20301;-88
2022/02/14 01:07:10;;;;;;;2.70;2.47;;;9.90;99.90;;;;;;5054409;28;21000;-89
2022/02/14 01:09:36;;;;;;;3.53;1.97;;;9.90;99.90;;;;;;5065450;28;20259;-90
2022/02/14 01:12:02;;;;;;;2.43;2.23;;;9.90;99.90;;;;;;5039472;28;20300;-90
2022/02/14 01:14:28;;;;;;;3.23;1.93;;;10.00;99.90;;;;;;5046714;28;20228;-90
2022/02/14 01:16:57;;;;;;;1.47;1.37;;;10.00;99.90;;;;;;5038069;28;20225;-91
2022/02/14 01:19:24;;;;;;;6.07;1.57;;;10.00;99.90;;;;;;5023384;28;20639;-90
2022/02/14 01:21:49;;;;;;;2.10;1.67;;;10.00;99.90;;;;;;5055508;28;20472;-91
2022/02/14 01:24:15;;;;;;;3.00;1.97;;;10.00;99.90;;;;;;5055976;28;20686;-90
2022/02/14 01:26:42;;;;;;;1.50;1.40;;;10.00;99.90;;;;;;5017441;28;20232;-89
2022/02/14 01:29:09;;;;;;;1.67;1.57;;;10.00;99.90;;;;;;5008077;28;20741;-92
2022/02/14 01:31:34;;;;;;;2.00;1.90;;;10.00;99.90;;;;;;5007908;28;20286;-91
2022/02/14 01:34:00;;;;;;;4.37;1.67;;;10.00;99.90;;;;;;5024400;28;20281;-91
2022/02/14 01:36:26;;;;;;;2.30;1.30;;;10.00;99.90;;;;;;5023097;28;20272;-90
2022/02/14 01:38:52;;;;;;;2.17;1.40;;;10.00;99.90;;;;;;5024290;28;20234;-91
2022/02/14 01:41:18;;;;;;;5.43;1.80;;;10.00;99.90;;;;;;5007913;28;20711;-91
2022/02/14 01:43:44;;;;;;;1.87;1.17;;;10.00;99.90;;;;;;5023885;28;20313;-89
2022/02/14 01:46:11;;;;;;;3.60;1.90;;;10.00;99.90;;;;;;5011250;28;20224;-89
2022/02/14 01:48:37;;;;;;;2.30;1.63;;;10.00;99.90;;;;;;5027896;28;20226;-89
2022/02/14 01:51:03;;;;;;;2.50;1.97;;;10.00;99.90;;;;;;5028192;28;20229;-88
2022/02/14 01:53:29;;;;;;;1.60;1.20;;;10.00;99.90;;;;;;5011645;28;20287;-90
2022/02/14 01:55:55;;;;;;;4.37;1.73;;;10.00;99.90;;;;;;5011938;28;20227;-89
2022/02/14 01:58:21;;;;;;;5.03;2.80;;;10.00;99.90;;;;;;5026815;28;20239;-90
2022/02/14 02:00:48;;;;;;;1.70;1.33;;;10.00;99.90;;;;;;5011387;28;20340;-89
2022/02/14 02:03:15;;;;;;;4.87;1.53;;;9.90;99.90;;;;;;5011386;28;20244;-90
2022/02/14 02:05:44;;;;;;;2.83;1.90;;;9.90;99.90;;;;;;5027021;28;20245;-90
2022/02/14 02:08:10;;;;;;;1.80;1.57;;;10.00;99.90;;;;;;5027199;28;20221;-90
2022/02/14 02:10:37;;;;;;;1.57;1.47;;;10.00;99.90;;;;;;5011442;28;20646;-88
2022/02/14 02:13:03;;;;;;;3.87;1.60;;;10.00;99.90;;;;;;5029002;28;20206;-89
2022/02/14 02:15:29;;;;;;;1.73;1.53;;;10.00;99.90;;;;;;5027553;28;20592;-89
2022/02/14 02:17:54;;;;;;;2.83;2.20;;;10.10;99.90;;;;;;5027544;28;20245;-89
2022/02/14 02:20:20;;;;;;;4.67;1.83;;;10.10;99.90;;;;;;5011250;28;20226;-89
2022/02/14 02:22:49;;;;;;;3.33;1.93;;;10.00;99.90;;;;;;5027125;28;20957;-89
2022/02/14 02:25:15;;;;;;;2.50;1.60;;;10.00;99.90;;;;;;5029877;28;20214;-89
2022/02/14 02:27:42;;;;;;;3.50;1.77;;;10.00;99.90;;;;;;5033273;28;20214;-89
2022/02/14 02:30:11;;;;;;;1.80;1.30;;;10.00;99.90;;;;;;5074804;28;20568;-90
2022/02/14 02:32:37;;;;;;;1.77;1.67;;;10.10;99.90;;;;;;5056582;28;20217;-89
2022/02/14 02:35:05;;;;;;;3.13;2.07;;;10.00;99.90;;;;;;5057184;28;20286;-90
2022/02/14 02:37:31;;;;;;;8.30;2.40;;;10.10;99.90;;;;;;5067263;28;20182;-88
2022/02/14 02:39:57;;;;;;;1.20;1.13;;;10.10;99.90;;;;;;5055993;28;20662;-89
2022/02/14 02:42:23;;;;;;;1.77;1.67;;;10.10;99.90;;;;;;5057241;28;20266;-89
2022/02/14 02:44:51;;;;;;;2.83;1.33;;;10.10;99.90;;;;;;5058121;28;20275;-89
2022/02/14 02:47:18;;;;;;;1.73;1.60;;;10.10;99.90;;;;;;5067462;28;20250;-90
2022/02/14 02:49:44;;;;;;;2.00;1.73;;;10.00;99.90;;;;;;5056324;28;20998;-89
2022/02/14 02:52:12;;;;;;;1.57;1.47;;;10.00;99.90;;;;;;5055597;28;20193;-90
2022/02/14 02:54:38;;;;;;;1.20;1.10;;;10.10;99.90;;;;;;5055680;28;20315;-89
2022/02/14 02:57:04;;;;;;;1.73;1.63;;;10.20;99.90;;;;;;5066924;28;20390;-90
2022/02/14 02:59:35;;;;;;;1.13;1.07;;;10.20;99.90;;;;;;5055344;28;20217;-89
2022/02/14 03:02:05;;;;;;;1.97;1.10;;;10.30;99.90;;;;;;5040248;28;20745;-91
2022/02/14 03:04:31;;;;;;;3.37;1.47;;;10.30;99.90;;;;;;5057070;28;20193;-88
2022/02/14 03:06:57;;;;;;;1.97;1.20;;;10.30;99.90;;;;;;5057656;28;20209;-89
2022/02/14 03:09:23;;;;;;;2.23;1.90;;;10.30;99.90;;;;;;5025261;28;20231;-89
2022/02/14 03:11:49;;;;;;;1.73;1.60;;;10.30;99.90;;;;;;5055760;28;20229;-90
2022/02/14 03:14:15;;;;;;;1.47;1.03;;;10.30;99.90;;;;;;5016772;28;20217;-90
2022/02/14 03:16:42;;;;;;;2.47;0.93;;;10.40;99.90;;;;;;5066876;28;20221;-89
2022/02/14 03:19:08;;;;;;;1.80;1.70;;;10.50;99.90;;;;;;5040556;28;20273;-90
2022/02/14 03:21:35;;;;;;;5.70;1.73;;;10.50;99.90;;;;;;5040689;28;20213;-90
2022/02/14 03:24:01;;;;;;;1.03;0.93;;;10.50;99.90;;;;;;5039869;28;21006;-91
2022/02/14 03:26:28;;;;;;;2.27;2.07;;;10.60;99.90;;;;;;5054697;28;20237;-89
2022/02/14 03:28:55;;;;;;;1.87;1.73;;;10.60;99.90;;;;;;5074188;28;20221;-90
2022/02/14 03:31:21;;;;;;;1.87;1.40;;;10.60;99.90;;;;;;5041248;28;20943;-89
2022/02/14 03:33:48;;;;;;;5.53;2.03;;;10.60;99.90;;;;;;5058765;28;20243;-89
2022/02/14 03:36:16;;;;;;;7.97;1.97;;;10.60;99.90;;;;;;5071926;28;21209;-89
2022/02/14 03:38:42;;;;;;;3.17;2.33;;;10.60;99.90;;;;;;5056513;28;20244;-90
2022/02/14 03:41:09;;;;;;;0.83;0.83;;;10.60;99.90;;;;;;5058945;28;20220;-88
2022/02/14 03:43:35;;;;;;;3.63;1.57;;;10.60;99.90;;;;;;5066920;28;20189;-87
2022/02/14 03:46:01;;;;;;;3.20;1.83;;;10.60;99.90;;;;;;5055814;28;20697;-87
2022/02/14 03:48:27;;;;;;;5.10;1.27;;;10.70;99.90;;;;;;5039551;28;20217;-91
2022/02/14 03:50:53;;;;;;;3.77;1.70;;;10.60;99.90;;;;;;5066264;28;20243;-89
2022/02/14 03:53:20;;;;;;;0.67;0.67;;;10.60;99.90;;;;;;5055997;28;20224;-88
2022/02/14 03:55:46;;;;;;;1.40;1.30;;;10.60;99.90;;;;;;5053032;28;20225;-88
2022/02/14 03:58:11;;;;;;;2.30;1.90;;;10.60;99.90;;;;;;5034662;28;20209;-88
2022/02/14 04:00:37;;;;;;;2.47;2.20;;;10.70;99.90;;;;;;5053354;28;20223;-88
2022/02/14 04:03:03;;;;;;;2.60;1.37;;;10.70;99.90;;;;;;5064927;28;20296;-88
2022/02/14 04:05:29;;;;;;;1.60;1.10;;;10.60;99.90;;;;;;5015362;28;20787;-88
2022/02/14 04:07:57;;;;;;;0.90;0.80;;;10.60;99.90;;;;;;5055134;28;20213;-87
2022/02/14 04:10:23;;;;;;;4.90;1.50;;;10.60;99.90;;;;;;5039782;28;20181;-88
2022/02/14 04:12:49;;;;;;;4.30;1.90;;;10.50;99.90;;;;;;5039293;28;20192;-90
2022/02/14 04:15:15;;;;;;;1.50;1.40;;;10.50;99.90;;;;;;5055496;28;20221;-88
2022/02/14 04:17:41;;;;;;;3.67;1.50;;;10.30;99.90;;;;;;5021114;28;20217;-88
2022/02/14 04:20:08;;;;;;;4.97;1.50;;;10.30;99.90;;;;;;5065774;28;20213;-88
2022/02/14 04:22:37;;;;;;;1.37;1.27;;;10.20;99.90;;;;;;5053827;28;20267;-88
2022/02/14 04:25:04;;;;;;;3.80;2.07;;;10.10;99.90;;;;;;5039994;28;20181;-90
2022/02/14 04:27:31;;;;;;;8.73;1.37;;;10.10;99.90;;;;;;5022413;28;20766;-89
2022/02/14 04:29:56;;;;;;;1.70;1.03;;;10.10;99.90;;;;;;5040314;28;20323;-87
2022/02/14 04:32:22;;;;;;;6.60;1.87;;;10.10;99.90;;;;;;5039755;28;20675;-87
2022/02/14 04:34:48;;;;;;;3.23;1.03;;;10.00;99.90;;;;;;5056077;28;21291;-88
2022/02/14 04:37:15;;;;;;;0.70;0.70;;;10.00;99.90;;;;;;5023410;28;20238;-87
2022/02/14 04:39:42;;;;;;;2.53;1.50;;;10.00;99.90;;;;;;5038886;28;20216;-89
2022/02/14 04:42:08;;;;;;;4.57;1.30;;;10.00;99.90;;;;;;5055063;28;20231;-89
2022/02/14 04:44:34;;;;;;;0.70;0.70;;;9.90;99.90;;;;;;5038850;28;20236;-89
2022/02/14 04:47:00;;;;;;;1.30;0.97;;;9.90;99.90;;;;;;5019999;28;20252;-89
2022/02/14 04:49:25;;;;;;;2.10;1.77;;;9.90;99.90;;;;;;5036835;28;20295;-89
2022/02/14 04:51:51;;;;;;;1.27;1.10;;;10.00;99.90;;;;;;5024168;28;20193;-89
2022/02/14 04:54:17;;;;;;;2.67;1.10;;;9.90;99.90;;;;;;5055037;28;21047;-90
2022/02/14 04:56:43;;;;;;;1.20;1.07;;;9.90;99.90;;;;;;5021533;28;20296;-87
2022/02/14 04:59:09;;;;;;;2.00;1.17;;;10.00;99.90;;;;;;5056111;28;20225;-87
2022/02/14 05:01:35;;;;;;;2.37;1.37;;;10.00;99.90;;;;;;5021378;28;20508;-88
2022/02/14 05:04:01;;;;;;;1.13;1.03;;;10.00;99.90;;;;;;5055319;28;20186;-88
2022/02/14 05:06:27;;;;;;;2.97;1.63;;;10.00;99.90;;;;;;5054824;28;20255;-89
2022/02/14 05:08:52;;;;;;;5.93;1.13;;;10.00;99.90;;;;;;5056181;28;20587;-89
2022/02/14 05:11:18;;;;;;;4.87;1.53;;;10.00;99.90;;;;;;5036505;28;21090;-89
2022/02/14 05:13:45;;;;;;;0.60;0.60;;;9.90;99.90;;;;;;5055165;28;20565;-88
2022/02/14 05:16:12;;;;;;;0.97;0.97;;;9.90;99.90;;;;;;5065431;28;20197;-88
2022/02/14 05:18:38;;;;;;;1.60;1.30;;;10.00;99.90;;;;;;5064411;28;20217;-88
2022/02/14 05:21:04;;;;;;;1.23;1.00;;;9.90;99.90;;;;;;5053791;28;20209;-88
2022/02/14 05:23:30;;;;;;;2.80;1.53;;;10.00;99.90;;;;;;5053512;28;20263;-91
2022/02/14 05:25:56;;;;;;;10.47;1.27;;;10.00;99.90;;;;;;5053304;28;20236;-89
2022/02/14 05:28:21;;;;;;;1.27;1.20;;;10.00;99.90;;;;;;5057819;28;20189;-90
2022/02/14 05:30:47;;;;;;;0.83;0.73;;;10.00;99.90;;;;;;5022862;28;20200;-88
2022/02/14 05:33:13;;;;;;;1.67;1.47;;;10.00;99.90;;;;;;5042112;28;20217;-88
2022/02/14 05:35:40;;;;;;;4.20;1.23;;;10.00;99.90;;;;;;5040661;28;20229;-89
2022/02/14 05:38:08;;;;;;;1.90;1.27;;;10.00;99.90;;;;;;5040587;28;20217;-90
2022/02/14 05:40:33;;;;;;;1.17;0.97;;;10.00;99.90;;;;;;5057507;28;20188;-87
2022/02/14 05:42:59;;;;;;;2.23;1.67;;;10.00;99.90;;;;;;5024842;28;20200;-89
2022/02/14 05:45:25;;;;;;;1.00;0.70;;;10.00;99.90;;;;;;5042036;28;21060;-91
2022/02/14 05:47:51;;;;;;;2.40;1.73;;;10.10;99.90;;;;;;5033782;28;20227;-87
2022/02/14 05:50:16;;;;;;;2.17;1.30;;;10.10;99.90;;;;;;5043652;28;20255;-90
2022/02/14 05:52:44;;;;;;;0.97;0.97;;;10.10;99.90;;;;;;5035278;28;20336;-92
2022/02/14 05:55:10;;;;;;;1.53;1.27;;;10.10;99.90;;;;;;5057886;28;20224;-89
2022/02/14 05:57:37;;;;;;;1.27;1.13;;;10.10;99.90;;;;;;5023997;28;20217;-89
2022/02/14 06:00:07;;;;;;;9.30;1.60;;;10.00;99.90;;;;;;5059234;28;20678;-88
2022/02/14 06:02:33;;;;;;;0.83;0.80;;;10.00;99.90;;;;;;5057336;28;20225;-89
2022/02/14 06:04:58;;;;;;;3.77;1.50;;;10.00;99.90;;;;;;5059761;28;20690;-91
2022/02/14 06:07:24;;;;;;;2.43;1.00;;;10.00;99.90;;;;;;5040455;28;20228;-89
2022/02/14 06:09:50;;;;;;;1.10;0.87;;;10.00;99.90;;;;;;5060134;28;20205;-88
2022/02/14 06:12:15;;;;;;;0.97;0.93;;;10.00;99.90;;;;;;5039464;28;20217;-90
2022/02/14 06:14:41;;;;;;;1.43;1.20;;;10.00;99.90;;;;;;5024999;28;20279;-89
2022/02/14 06:17:07;;;;;;;2.00;1.80;;;10.00;99.90;;;;;;5025852;28;20209;-90
2022/02/14 06:19:33;;;;;;;0.80;0.80;;;10.00;99.90;;;;;;5059081;28;20242;-91
2022/02/14 06:21:58;;;;;;;1.60;1.50;;;10.00;99.90;;;;;;5058478;28;20288;-89
2022/02/14 06:24:24;;;;;;;1.53;1.07;;;10.00;99.90;;;;;;5066326;28;20364;-86
2022/02/14 06:26:50;;;;;;;1.37;0.70;;;10.00;99.90;;;;;;5057607;28;20868;-86
2022/02/14 06:29:16;;;;;;;2.90;1.33;;;10.10;99.90;;;;;;5025130;28;20698;-90
2022/02/14 06:31:41;;;;;;;1.83;0.90;;;10.10;99.90;;;;;;5066209;28;20725;-89
2022/02/14 06:34:07;;;;;;;2.97;1.13;;;10.10;99.90;;;;;;5041691;28;20189;-90
2022/02/14 06:36:33;;;;;;;3.03;0.93;;;10.00;99.90;;;;;;5055828;28;20227;-89
2022/02/14 06:38:59;;;;;;;4.27;1.47;;;10.00;99.90;;;;;;5034249;28;20307;-87
2022/02/14 06:41:26;;;;;;;0.80;0.80;;;10.00;99.90;;;;;;5064215;28;20716;-88
2022/02/14 06:43:56;;;;;;;3.10;1.90;;;10.10;99.90;;;;;;5037330;28;20224;-86
2022/02/14 06:46:22;;;;;;;0.93;0.90;;;10.10;99.90;;;;;;5051036;28;20213;-87
2022/02/14 06:48:49;;;;;;;2.67;1.07;;;10.10;99.90;;;;;;5051393;28;20189;-88
2022/02/14 06:51:17;;;;;;;1.23;0.63;;;10.00;99.90;;;;;;5035024;28;20221;-87
2022/02/14 06:53:44;;;;;;;6.63;1.10;;;10.10;99.90;;;;;;5062488;28;20342;-85
2022/02/14 06:56:10;;;;;;;1.03;1.03;;;10.10;99.90;;;;;;5063128;28;20228;-87
2022/02/14 06:58:37;;;;;;;1.17;1.07;;;10.10;99.90;;;;;;5036689;28;20193;-87
2022/02/14 07:01:05;;;;;;;1.73;1.30;;;10.00;99.90;;;;;;5063905;28;20240;-87
2022/02/14 07:03:31;;;;;;;1.00;0.90;;;10.10;99.90;;;;;;5019782;28;20210;-88
2022/02/14 07:05:57;;;;;;;1.93;1.10;;;10.10;99.90;;;;;;5038129;28;20265;-87
2022/02/14 07:08:23;;;;;;;0.73;0.70;;;10.10;99.90;;;;;;5064524;28;20217;-88
2022/02/14 07:10:49;;;;;;;0.60;0.60;;;10.10;99.90;;;;;;5030640;28;20239;-85
2022/02/14 07:13:15;;;;;;;1.57;0.80;;;10.10;99.90;;;;;;5039985;28;20247;-90
2022/02/14 07:15:41;;;;;;;1.07;0.70;;;10.10;99.90;;;;;;5042165;28;20225;-92
2022/02/14 07:18:12;;;;;;;4.67;1.50;;;10.00;99.90;;;;;;5052280;28;20258;-86
2022/02/14 07:20:38;;;;;;;1.20;1.13;;;10.00;99.90;;;;;;5038024;28;20217;-87
2022/02/14 07:23:05;;;;;;;1.40;0.70;;;10.00;99.90;;;;;;5062645;28;20300;-85
2022/02/14 07:25:31;;;;;;;0.87;0.60;;;10.00;99.90;;;;;;5019732;28;20193;-87
2022/02/14 07:27:57;;;;;;;1.77;1.43;;;10.10;99.90;;;;;;5055019;28;20189;-86
2022/02/14 07:30:23;;;;;;;1.80;0.73;;;10.10;99.90;;;;;;5035882;28;20247;-87
2022/02/14 07:32:50;;;;;;;0.70;0.70;;;10.30;99.90;;;;;;5053887;28;20232;-86
2022/02/14 07:35:16;;;;;;;1.43;1.00;;;10.50;99.90;;;;;;5054517;28;20220;-86
2022/02/14 07:37:43;;;;;;;2.27;1.10;;;10.60;99.90;;;;;;5052732;28;20221;-91
2022/02/14 07:40:10;;;;;;;2.37;2.20;;;10.50;99.90;;;;;;5054136;28;20190;-87
2022/02/14 07:42:36;;;;;;;4.43;1.97;;;10.40;99.90;;;;;;5053909;28;20217;-87
2022/02/14 07:45:02;;;;;;;0.70;0.70;;;10.30;99.90;;;;;;5037187;28;20231;-86
2022/02/14 07:47:28;;;;;;;4.20;2.60;;;10.20;99.90;;;;;;5048832;28;20233;-88
2022/02/14 07:49:54;;;;;;;0.60;0.60;;;10.20;99.90;;;;;;5039379;28;20593;-89
2022/02/14 07:52:20;;;;;;;1.20;0.97;;;10.10;99.90;;;;;;5056734;28;20610;-90
2022/02/14 07:54:46;;;;;;;6.67;1.10;;;10.10;99.90;;;;;;5022167;28;20201;-87
2022/02/14 07:57:12;;;;;;;3.53;3.20;;;10.10;99.90;;;;;;5037828;28;20701;-87
2022/02/14 07:59:38;;;;;;;1.10;1.10;;;10.10;99.90;;;;;;5036947;28;20213;-87
2022/02/14 08:02:04;;;;;;;2.53;0.87;;;10.10;99.90;;;;;;5038101;28;20256;-87
2022/02/14 08:04:29;;;;;;;0.77;0.77;;;10.10;99.90;;;;;;5021851;28;21047;-88
2022/02/14 08:06:55;;;;;;;0.80;0.80;;;10.00;99.90;;;;;;5039054;28;20221;-87
2022/02/14 08:09:21;;;;;;;1.47;1.37;;;10.00;99.90;;;;;;5030533;28;20742;-88
2022/02/14 08:11:47;;;;;;;5.20;1.10;;;10.00;99.90;;;;;;5037553;28;20220;-88
2022/02/14 08:14:14;;;;;;;2.73;1.73;;;10.00;99.90;;;;;;5053642;28;20713;-87
2022/02/14 08:16:40;;;;;;;13.97;4.97;;;10.00;99.90;;;;;;5017812;28;20225;-86
2022/02/14 08:19:06;;;;;;;6.23;3.97;;;9.90;99.90;;;;;;5035471;28;20185;-85
2022/02/14 08:21:32;;;;;;;9.30;3.63;;;9.90;99.90;;;;;;5038259;28;21092;-85
2022/02/14 08:23:58;;;;;;;6.23;3.07;;;9.90;99.90;;;;;;5056635;28;20229;-87
2022/02/14 08:26:25;;;;;;;9.03;2.73;;;9.90;99.90;;;;;;5053359;28;20245;-86
2022/02/14 08:28:51;;;;;;;1.87;1.10;;;9.80;99.90;;;;;;5039445;28;21130;-85
2022/02/14 08:31:17;;;;;;;7.27;2.93;;;9.80;99.90;;;;;;5038614;28;20189;-84
2022/02/14 08:33:42;;;;;;;1.43;1.13;;;9.80;99.90;;;;;;5054839;28;20241;-85
2022/02/14 08:36:10;;;;;;;11.73;5.00;;;9.70;99.90;;;;;;5038372;28;20260;-85
2022/02/14 08:38:35;;;;;;;9.33;3.70;;;9.70;99.90;;;;;;5065846;28;20674;-85
2022/02/14 08:41:03;;;;;;;5.83;2.40;;;9.70;99.90;;;;;;5038786;28;20219;-84
2022/02/14 08:43:29;;;;;;;2.90;0.77;;;9.70;99.90;;;;;;5047718;28;20284;-86
2022/02/14 08:45:55;;;;;;;2.73;1.17;;;9.60;99.90;;;;;;5036505;28;20647;-85
2022/02/14 08:48:20;;;;;;;0.63;0.63;;;9.60;99.90;;;;;;5037974;28;20302;-86
2022/02/14 08:50:46;;;;;;;2.73;0.73;;;9.60;99.90;;;;;;5039095;28;20743;-87
2022/02/14 08:53:12;;;;;;;0.50;0.50;;;9.70;99.90;;;;;;5016177;28;20682;-85
2022/02/14 08:55:38;;;;;;;1.40;0.40;;;9.60;99.90;;;;;;5025027;28;20197;-85
2022/02/14 08:58:04;;;;;;;2.23;0.93;;;9.70;99.90;;;;;;5042745;28;20262;-84
2022/02/14 09:00:30;;;;;;;4.27;2.27;;;9.70;99.90;;;;;;5040906;28;21028;-85
2022/02/14 09:02:56;;;;;;;1.43;0.80;;;9.80;99.90;;;;;;5058440;28;20217;-88
2022/02/14 09:05:23;;;;;;;0.57;0.57;;;9.90;99.90;;;;;;5041404;28;20221;-85
2022/02/14 09:07:50;;;;;;;1.50;0.73;;;10.10;99.90;;;;;;5051121;28;20235;-85
2022/02/14 09:10:17;;;;;;;2.37;2.00;;;10.20;99.90;;;;;;5043422;28;20182;-85
2022/02/14 09:12:43;;;;;;;3.67;1.00;;;10.10;99.90;;;;;;5041229;28;20263;-85
2022/02/14 09:15:09;;;;;;;0.97;0.93;;;10.10;99.90;;;;;;5033985;28;20608;-86
2022/02/14 09:17:35;;;;;;;1.70;1.27;;;10.30;99.90;;;;;;5041178;28;20236;-85
2022/02/14 09:20:00;;;;;;;6.83;2.70;;;10.30;99.90;;;;;;5042128;28;20584;-86
2022/02/14 09:22:26;;;;;;;1.33;0.83;;;10.30;99.90;;;;;;5041790;28;20226;-87
2022/02/14 09:24:52;;;;;;;4.20;1.70;;;10.40;99.90;;;;;;5056562;28;20573;-85
2022/02/14 09:27:18;;;;;;;1.50;1.03;;;10.50;99.90;;;;;;5025002;28;20571;-85
2022/02/14 09:29:43;;;;;;;0.73;0.73;;;10.60;99.90;;;;;;5057832;28;20674;-86
2022/02/14 09:32:09;;;;;;;10.63;1.33;;;10.60;99.90;;;;;;5041349;28;21038;-89
2022/02/14 09:34:35;;;;;;;2.60;2.13;;;10.20;99.90;;;;;;5042014;28;20511;-85
2022/02/14 09:37:01;;;;;;;5.10;2.17;;;10.20;99.90;;;;;;5058228;28;20242;-84
2022/02/14 09:39:30;;;;;;;2.10;1.77;;;10.40;99.90;;;;;;5076368;28;20760;-86
2022/02/14 09:42:00;;;;;;;0.70;0.70;;;10.50;99.90;;;;;;5041671;28;20217;-86
2022/02/14 09:44:27;;;;;;;3.17;0.70;;;10.60;99.90;;;;;;5067913;28;20225;-88
2022/02/14 09:46:53;;;;;;;2.23;2.03;;;10.60;99.90;;;;;;5058223;28;20228;-88
2022/02/14 09:49:20;;;;;;;2.33;0.70;;;10.80;99.90;;;;;;5067734;28;20197;-89
2022/02/14 09:51:47;;;;;;;5.10;1.63;;;10.70;99.90;;;;;;5069504;28;20190;-88
2022/02/14 09:54:13;;;;;;;0.47;0.47;;;10.60;99.90;;;;;;5056371;28;20270;-88
2022/02/14 09:56:40;;;;;;;1.07;0.93;;;10.60;99.90;;;;;;5031196;28;20276;-88
2022/02/14 09:59:06;;;;;;;7.20;3.53;;;10.60;99.90;;;;;;5056034;28;20323;-87
2022/02/14 10:01:32;;;;;;;1.30;1.20;;;10.70;99.90;;;;;;5039014;28;20280;-89
2022/02/14 10:04:00;;;;;;;3.93;1.27;;;10.80;99.90;;;;;;5056726;28;20193;-89
2022/02/14 10:06:36;;;;;;;1.53;0.93;;;10.90;99.90;;;;;;5021840;28;20227;-86
2022/02/14 10:09:18;;;;;;;0.43;0.40;;;11.10;99.90;;;;;;5062833;28;20213;-90
2022/02/14 10:12:01;;;;;;;0.50;0.50;;;10.90;99.90;;;;;;5054793;28;20557;-85
2022/02/14 10:14:28;;;;;;;1.23;1.13;;;10.90;99.90;;;;;;5053287;28;20221;-85
2022/02/14 10:17:22;;;;;;;5.00;0.90;;;10.90;99.90;;;;;;5065805;28;20224;-86
2022/02/14 10:20:02;;;;;;;7.53;1.63;;;11.20;99.90;;;;;;5054370;28;20232;-87
2022/02/14 10:22:28;;;;;;;12.63;0.90;;;11.30;99.90;;;;;;5055010;28;20286;-85
2022/02/14 10:24:54;;;;;;;0.60;0.60;;;11.20;99.90;;;;;;5065248;28;20900;-88
2022/02/14 10:27:34;;;;;;;0.30;0.23;;;11.40;99.90;;;;;;5056498;28;20328;-84
2022/02/14 10:30:08;;;;;;;2.20;0.93;;;11.50;99.90;;;;;;5056401;28;20592;-87
2022/02/14 10:32:34;;;;;;;1.00;0.40;;;11.30;99.90;;;;;;5040007;28;20229;-87
2022/02/14 10:35:00;;;;;;;3.47;0.40;;;11.10;99.90;;;;;;5040959;28;20224;-84
2022/02/14 10:37:41;;;;;;;1.20;0.80;;;11.00;99.90;;;;;;5039733;28;20224;-86
2022/02/14 10:40:08;;;;;;;1.23;0.67;;;11.00;99.90;;;;;;5056471;28;20181;-86
2022/02/14 10:42:38;;;;;;;2.77;0.47;;;10.90;99.90;;;;;;5066745;28;20213;-84
2022/02/14 10:45:09;;;;;;;2.00;1.10;;;11.00;99.90;;;;;;5053350;28;20266;-85
2022/02/14 10:47:44;;;;;;;0.40;0.40;;;10.90;99.90;;;;;;5039450;28;20229;-85
2022/02/14 10:50:11;;;;;;;0.50;0.50;;;10.90;99.90;;;;;;5055251;28;20219;-86
2022/02/14 10:52:49;;;;;;;3.50;0.90;;;10.80;99.90;;;;;;5066463;28;20209;-86
2022/02/14 10:55:18;;;;;;;3.97;1.27;;;10.70;99.90;;;;;;5056293;28;20222;-87
2022/02/14 10:57:45;;;;;;;4.47;0.80;;;10.80;99.90;;;;;;5072957;28;20332;-87
2022/02/14 11:00:28;;;;;;;4.97;1.57;;;10.70;99.90;;;;;;5056350;28;20701;-87
2022/02/14 11:03:01;;;;;;;0.67;0.67;;;10.70;99.90;;;;;;5055957;28;20363;-86
2022/02/14 11:05:29;;;;;;;0.87;0.87;;;10.80;99.90;;;;;;5056626;28;20505;-88
2022/02/14 11:07:58;;;;;;;0.43;0.43;;;10.80;99.90;;;;;;5067453;28;20221;-88
2022/02/14 11:10:25;;;;;;;0.50;0.50;;;10.80;99.90;;;;;;5038793;28;20233;-89
2022/02/14 11:12:52;;;;;;;1.53;1.40;;;10.90;99.90;;;;;;5040402;28;20251;-87
2022/02/14 11:15:18;;;;;;;5.93;1.70;;;10.80;99.90;;;;;;5066574;28;20217;-86
2022/02/14 11:17:51;;;;;;;1.27;0.40;;;10.80;99.90;;;;;;5056501;28;20220;-85
2022/02/14 11:20:17;;;;;;;1.07;1.00;;;10.90;99.90;;;;;;5054933;28;20225;-87
2022/02/14 11:22:46;;;;;;;4.43;0.87;;;11.00;99.90;;;;;;5054755;28;20216;-88
2022/02/14 11:25:29;;;;;;;1.27;1.00;;;11.20;99.90;;;;;;5057345;28;20182;-87
2022/02/14 11:28:19;;;;;;;1.40;0.93;;;10.80;99.90;;;;;;5054061;28;20259;-87
2022/02/14 11:30:49;;;;;;;5.17;0.97;;;10.80;99.90;;;;;;5060120;28;20225;-86
2022/02/14 11:33:22;;;;;;;0.90;0.80;;;10.80;99.90;;;;;;5065608;28;20220;-89
2022/02/14 11:35:59;;;;;;;0.80;0.70;;;10.60;99.90;;;;;;5054669;28;21088;-86
2022/02/14 11:38:53;;;;;;;1.07;0.90;;;10.50;99.90;;;;;;5036572;28;20295;-89
2022/02/14 11:41:24;;;;;;;0.67;0.67;;;10.50;99.90;;;;;;5019655;28;20225;-89
2022/02/14 11:43:51;;;;;;;2.17;0.87;;;10.50;99.90;;;;;;5066184;28;20217;-87
2022/02/14 11:46:19;;;;;;;1.27;0.60;;;10.50;99.90;;;;;;5056042;28;20217;-86
2022/02/14 11:49:11;;;;;;;1.07;0.70;;;10.70;99.90;;;;;;5066347;28;20221;-87
2022/02/14 11:51:39;;;;;;;2.37;0.60;;;10.60;99.90;;;;;;5054690;28;20223;-88
2022/02/14 11:54:07;;;;;;;1.83;0.73;;;10.50;99.90;;;;;;5055027;28;20201;-87
2022/02/14 11:56:40;;;;;;;1.40;1.17;;;10.40;99.90;;;;;;5054861;28;20301;-87
2022/02/14 11:59:09;;;;;;;1.23;1.23;;;10.30;99.90;;;;;;5054520;28;20223;-87
2022/02/14 12:01:52;;;;;;;1.60;0.73;;;10.20;99.90;;;;;;5054684;28;20200;-89
2022/02/14 12:04:35;;;;;;;0.37;0.37;;;10.20;99.90;;;;;;5056266;28;20203;-85
2022/02/14 12:07:40;;;;;;;15.90;1.27;;;10.20;99.90;;;;;;5066615;28;20239;-86
2022/02/14 12:10:13;;;;;;;1.87;0.87;;;10.10;99.90;;;;;;5039723;28;20213;-86
2022/02/14 12:12:59;;;;;;;2.37;0.40;;;10.10;99.90;;;;;;5055972;28;20446;-87
2022/02/14 12:21:05;;;;;;;1.20;1.10;;;10.20;99.90;;;;;;5065546;28;20347;-88
2022/02/14 12:23:38;;;;;;;2.23;2.03;;;10.30;99.90;;;;;;5065760;28;20247;-88
2022/02/14 12:26:07;;;;;;;0.70;0.70;;;10.20;99.90;;;;;;5054869;28;20260;-89
2022/02/14 12:28:35;;;;;;;1.80;1.70;;;10.20;99.90;;;;;;5065762;28;20193;-86
2022/02/14 12:31:01;;;;;;;0.80;0.60;;;10.10;99.90;;;;;;5053892;28;20200;-89
2022/02/14 12:33:27;;;;;;;0.80;0.70;;;10.00;99.90;;;;;;5038230;28;20236;-89
2022/02/14 12:35:55;;;;;;;15.27;1.87;;;10.00;99.90;;;;;;5054582;28;20224;-88
2022/02/14 12:38:26;;;;;;;5.07;1.00;;;10.10;99.90;;;;;;5040573;28;20221;-89
2022/02/14 12:41:04;;;;;;;1.77;1.33;;;10.10;99.90;;;;;;5038958;28;20209;-89
2022/02/14 12:43:43;;;;;;;1.10;1.00;;;10.00;99.90;;;;;;5050067;28;20205;-88
2022/02/14 12:46:18;;;;;;;3.00;0.97;;;10.10;99.90;;;;;;5054594;28;20733;-89
2022/02/14 12:48:46;;;;;;;0.87;0.87;;;10.10;99.90;;;;;;5054291;28;20217;-87
2022/02/14 12:51:21;;;;;;;4.50;1.63;;;10.10;99.90;;;;;;5053097;28;20241;-88
2022/02/14 12:53:54;;;;;;;0.93;0.93;;;10.10;99.90;;;;;;5065080;28;20255;-88
2022/02/14 12:56:21;;;;;;;0.67;0.67;;;10.20;99.90;;;;;;5065301;28;20255;-87